sensor_id;sensor_type;location;lat;lon;timestamp;temperature;humidity
20125;DHT22;10223;50.862;4.360;2023-07-02T00:01:47;17.30;99.90
20125;DHT22;10223;50.862;4.360;2023-07-02T00:04:14;17.10;99.90
20125;DHT22;10223;50.862;4.360;2023-07-02T00:06:43;17.20;99.90
20125;DHT22;10223;50.862;4.360;2023-07-02T00:09:10;17.10;99.90
20125;DHT22;10223;50.862;4.360;2023-07-02T00:11:38;17.00;99.90
20125;DHT22;10223;50.862;4.360;2023-07-02T00:14:05;17.00;99.90
20125;DHT22;10223;50.862;4.360;2023-07-02T00:16:34;17.00;99.90
20125;DHT22;10223;50.862;4.360;2023-07-02T00:19:01;17.00;99.90
20125;DHT22;10223;50.862;4.360;2023-07-02T00:21:29;17.00;99.90
20125;DHT22;10223;50.862;4.360;2023-07-02T00:23:58;17.00;99.90
20125;DHT22;10223;50.862;4.360;2023-07-02T00:26:26;17.00;99.90
20125;DHT22;10223;50.862;4.360;2023-07-02T00:28:53;16.90;99.90
20125;DHT22;10223;50.862;4.360;2023-07-02T00:31:21;16.90;99.90
20125;DHT22;10223;50.862;4.360;2023-07-02T00:33:50;16.90;99.90
20125;DHT22;10223;50.862;4.360;2023-07-02T00:36:17;17.00;99.90
20125;DHT22;10223;50.862;4.360;2023-07-02T00:38:45;16.90;99.90
20125;DHT22;10223;50.862;4.360;2023-07-02T00:41:12;16.80;99.90
20125;DHT22;10223;50.862;4.360;2023-07-02T00:43:39;16.80;99.90
20125;DHT22;10223;50.862;4.360;2023-07-02T00:46:10;16.80;99.90
20125;DHT22;10223;50.862;4.360;2023-07-02T00:48:38;16.80;99.90
20125;DHT22;10223;50.862;4.360;2023-07-02T00:51:08;16.90;99.90
20125;DHT22;10223;50.862;4.360;2023-07-02T00:53:35;16.90;99.90
20125;DHT22;10223;50.862;4.360;2023-07-02T00:56:02;16.90;99.90
20125;DHT22;10223;50.862;4.360;2023-07-02T00:58:29;16.80;99.90
20125;DHT22;10223;50.862;4.360;2023-07-02T01:00:56;16.80;99.90
20125;DHT22;10223;50.862;4.360;2023-07-02T01:03:24;16.80;99.90
20125;DHT22;10223;50.862;4.360;2023-07-02T01:05:51;16.80;99.90
20125;DHT22;10223;50.862;4.360;2023-07-02T01:08:19;16.90;99.90
20125;DHT22;10223;50.862;4.360;2023-07-02T01:10:47;16.80;99.90
20125;DHT22;10223;50.862;4.360;2023-07-02T01:13:16;16.80;99.90
20125;DHT22;10223;50.862;4.360;2023-07-02T01:15:45;16.90;99.90
20125;DHT22;10223;50.862;4.360;2023-07-02T01:18:14;16.80;99.90
20125;DHT22;10223;50.862;4.360;2023-07-02T01:20:43;17.00;99.90
20125;DHT22;10223;50.862;4.360;2023-07-02T01:23:10;17.00;99.90
20125;DHT22;10223;50.862;4.360;2023-07-02T01:25:37;17.00;99.90
20125;DHT22;10223;50.862;4.360;2023-07-02T01:28:04;17.00;99.90
20125;DHT22;10223;50.862;4.360;2023-07-02T01:30:31;16.90;99.90
20125;DHT22;10223;50.862;4.360;2023-07-02T01:32:58;16.90;99.90
20125;DHT22;10223;50.862;4.360;2023-07-02T01:35:25;16.90;99.90
20125;DHT22;10223;50.862;4.360;2023-07-02T01:37:53;16.90;99.90
20125;DHT22;10223;50.862;4.360;2023-07-02T01:40:20;17.00;99.90
20125;DHT22;10223;50.862;4.360;2023-07-02T01:42:47;16.90;99.90
20125;DHT22;10223;50.862;4.360;2023-07-02T01:45:14;16.90;99.90
20125;DHT22;10223;50.862;4.360;2023-07-02T01:47:41;16.90;99.90
20125;DHT22;10223;50.862;4.360;2023-07-02T01:50:09;17.00;99.90
20125;DHT22;10223;50.862;4.360;2023-07-02T01:52:36;16.90;99.90
20125;DHT22;10223;50.862;4.360;2023-07-02T01:55:05;16.90;99.90
20125;DHT22;10223;50.862;4.360;2023-07-02T01:57:31;16.90;99.90
20125;DHT22;10223;50.862;4.360;2023-07-02T01:59:58;17.00;99.90
20125;DHT22;10223;50.862;4.360;2023-07-02T02:02:25;17.00;99.90
20125;DHT22;10223;50.862;4.360;2023-07-02T02:04:52;17.00;99.90
20125;DHT22;10223;50.862;4.360;2023-07-02T02:07:19;16.90;99.90
20125;DHT22;10223;50.862;4.360;2023-07-02T02:09:46;16.80;99.90
20125;DHT22;10223;50.862;4.360;2023-07-02T02:12:14;16.80;99.90
20125;DHT22;10223;50.862;4.360;2023-07-02T02:14:41;16.80;99.90
20125;DHT22;10223;50.862;4.360;2023-07-02T02:17:08;16.90;99.90
20125;DHT22;10223;50.862;4.360;2023-07-02T02:19:35;16.90;99.90
20125;DHT22;10223;50.862;4.360;2023-07-02T02:22:02;17.00;99.90
20125;DHT22;10223;50.862;4.360;2023-07-02T02:24:29;16.70;99.90
20125;DHT22;10223;50.862;4.360;2023-07-02T02:26:55;16.70;99.90
20125;DHT22;10223;50.862;4.360;2023-07-02T02:29:24;16.70;99.90
20125;DHT22;10223;50.862;4.360;2023-07-02T02:31:51;16.70;99.90
20125;DHT22;10223;50.862;4.360;2023-07-02T02:34:17;16.70;99.90
20125;DHT22;10223;50.862;4.360;2023-07-02T02:36:44;16.70;99.90
20125;DHT22;10223;50.862;4.360;2023-07-02T02:39:12;16.60;99.90
20125;DHT22;10223;50.862;4.360;2023-07-02T02:41:39;16.60;99.90
20125;DHT22;10223;50.862;4.360;2023-07-02T02:44:06;16.60;99.90
20125;DHT22;10223;50.862;4.360;2023-07-02T02:46:34;16.80;99.90
20125;DHT22;10223;50.862;4.360;2023-07-02T02:49:01;16.50;99.90
20125;DHT22;10223;50.862;4.360;2023-07-02T02:51:28;16.50;99.90
20125;DHT22;10223;50.862;4.360;2023-07-02T02:53:55;16.70;99.90
20125;DHT22;10223;50.862;4.360;2023-07-02T02:56:22;16.70;99.90
20125;DHT22;10223;50.862;4.360;2023-07-02T02:58:49;16.70;99.90
20125;DHT22;10223;50.862;4.360;2023-07-02T03:01:16;16.70;99.90
20125;DHT22;10223;50.862;4.360;2023-07-02T03:03:44;16.50;99.90
20125;DHT22;10223;50.862;4.360;2023-07-02T03:06:12;16.50;99.90
20125;DHT22;10223;50.862;4.360;2023-07-02T03:08:40;16.30;99.90
20125;DHT22;10223;50.862;4.360;2023-07-02T03:11:07;16.30;99.90
20125;DHT22;10223;50.862;4.360;2023-07-02T03:13:33;16.20;99.90
20125;DHT22;10223;50.862;4.360;2023-07-02T03:16:00;16.30;99.90
20125;DHT22;10223;50.862;4.360;2023-07-02T03:18:27;16.30;99.90
20125;DHT22;10223;50.862;4.360;2023-07-02T03:20:55;16.30;99.90
20125;DHT22;10223;50.862;4.360;2023-07-02T03:23:22;16.20;99.90
20125;DHT22;10223;50.862;4.360;2023-07-02T03:25:49;16.20;99.90
20125;DHT22;10223;50.862;4.360;2023-07-02T03:28:16;16.20;99.90
20125;DHT22;10223;50.862;4.360;2023-07-02T03:30:43;16.10;99.90
20125;DHT22;10223;50.862;4.360;2023-07-02T03:33:10;16.30;99.90
20125;DHT22;10223;50.862;4.360;2023-07-02T03:35:36;16.20;99.90
20125;DHT22;10223;50.862;4.360;2023-07-02T03:38:05;16.20;99.90
20125;DHT22;10223;50.862;4.360;2023-07-02T03:40:32;16.10;99.90
20125;DHT22;10223;50.862;4.360;2023-07-02T03:42:59;16.10;99.90
20125;DHT22;10223;50.862;4.360;2023-07-02T03:45:26;16.10;99.90
20125;DHT22;10223;50.862;4.360;2023-07-02T03:47:53;15.90;99.90
20125;DHT22;10223;50.862;4.360;2023-07-02T03:50:20;15.90;99.90
20125;DHT22;10223;50.862;4.360;2023-07-02T03:52:46;15.90;99.90
20125;DHT22;10223;50.862;4.360;2023-07-02T03:55:15;15.90;99.90
20125;DHT22;10223;50.862;4.360;2023-07-02T03:57:42;15.80;99.90
20125;DHT22;10223;50.862;4.360;2023-07-02T04:00:09;15.80;99.90
20125;DHT22;10223;50.862;4.360;2023-07-02T04:02:37;15.90;99.90
20125;DHT22;10223;50.862;4.360;2023-07-02T04:05:04;15.70;99.90
20125;DHT22;10223;50.862;4.360;2023-07-02T04:07:31;15.60;99.90
20125;DHT22;10223;50.862;4.360;2023-07-02T04:09:58;15.70;99.90
20125;DHT22;10223;50.862;4.360;2023-07-02T04:12:27;15.70;99.90
20125;DHT22;10223;50.862;4.360;2023-07-02T04:14:54;15.50;99.90
20125;DHT22;10223;50.862;4.360;2023-07-02T04:17:21;15.50;99.90
20125;DHT22;10223;50.862;4.360;2023-07-02T04:19:47;15.50;99.90
20125;DHT22;10223;50.862;4.360;2023-07-02T04:22:15;15.50;99.90
20125;DHT22;10223;50.862;4.360;2023-07-02T04:24:43;15.50;99.90
20125;DHT22;10223;50.862;4.360;2023-07-02T04:27:10;15.50;99.90
20125;DHT22;10223;50.862;4.360;2023-07-02T04:29:40;15.50;99.90
20125;DHT22;10223;50.862;4.360;2023-07-02T04:32:08;15.40;99.90
20125;DHT22;10223;50.862;4.360;2023-07-02T04:34:35;15.30;99.90
20125;DHT22;10223;50.862;4.360;2023-07-02T04:37:03;15.40;99.90
20125;DHT22;10223;50.862;4.360;2023-07-02T04:39:30;15.40;99.90
20125;DHT22;10223;50.862;4.360;2023-07-02T04:41:57;15.40;99.90
20125;DHT22;10223;50.862;4.360;2023-07-02T04:44:24;15.40;99.90
20125;DHT22;10223;50.862;4.360;2023-07-02T04:46:57;15.40;99.90
20125;DHT22;10223;50.862;4.360;2023-07-02T04:49:24;15.40;99.90
20125;DHT22;10223;50.862;4.360;2023-07-02T04:51:51;15.40;99.90
20125;DHT22;10223;50.862;4.360;2023-07-02T04:54:19;15.30;99.90
20125;DHT22;10223;50.862;4.360;2023-07-02T04:56:47;15.30;99.90
20125;DHT22;10223;50.862;4.360;2023-07-02T04:59:14;15.40;99.90
20125;DHT22;10223;50.862;4.360;2023-07-02T05:01:41;15.50;99.90
20125;DHT22;10223;50.862;4.360;2023-07-02T05:04:09;15.50;99.90
20125;DHT22;10223;50.862;4.360;2023-07-02T05:06:36;15.50;99.90
20125;DHT22;10223;50.862;4.360;2023-07-02T05:09:03;15.60;99.90
20125;DHT22;10223;50.862;4.360;2023-07-02T05:11:30;15.40;99.90
20125;DHT22;10223;50.862;4.360;2023-07-02T05:13:57;15.40;99.90
20125;DHT22;10223;50.862;4.360;2023-07-02T05:16:24;15.40;99.90
20125;DHT22;10223;50.862;4.360;2023-07-02T05:18:51;15.50;99.90
20125;DHT22;10223;50.862;4.360;2023-07-02T05:21:19;15.60;99.90
20125;DHT22;10223;50.862;4.360;2023-07-02T05:23:47;15.70;99.90
20125;DHT22;10223;50.862;4.360;2023-07-02T05:26:14;15.70;99.90
20125;DHT22;10223;50.862;4.360;2023-07-02T05:28:41;15.80;99.90
20125;DHT22;10223;50.862;4.360;2023-07-02T05:31:08;15.80;99.90
20125;DHT22;10223;50.862;4.360;2023-07-02T05:33:34;15.90;99.90
20125;DHT22;10223;50.862;4.360;2023-07-02T05:36:01;15.90;99.90
20125;DHT22;10223;50.862;4.360;2023-07-02T05:38:30;16.00;99.90
20125;DHT22;10223;50.862;4.360;2023-07-02T05:40:56;16.10;99.90
20125;DHT22;10223;50.862;4.360;2023-07-02T05:43:23;16.00;99.90
20125;DHT22;10223;50.862;4.360;2023-07-02T05:45:51;16.10;99.90
20125;DHT22;10223;50.862;4.360;2023-07-02T05:48:18;16.20;99.90
20125;DHT22;10223;50.862;4.360;2023-07-02T05:50:45;16.20;99.90
20125;DHT22;10223;50.862;4.360;2023-07-02T05:53:12;16.20;99.90
20125;DHT22;10223;50.862;4.360;2023-07-02T05:55:42;16.20;99.90
20125;DHT22;10223;50.862;4.360;2023-07-02T05:58:09;16.10;99.90
20125;DHT22;10223;50.862;4.360;2023-07-02T06:00:35;16.10;99.90
20125;DHT22;10223;50.862;4.360;2023-07-02T06:03:02;16.20;99.90
20125;DHT22;10223;50.862;4.360;2023-07-02T06:05:29;16.20;99.90
20125;DHT22;10223;50.862;4.360;2023-07-02T06:07:56;16.30;99.90
20125;DHT22;10223;50.862;4.360;2023-07-02T06:10:23;16.60;99.90
20125;DHT22;10223;50.862;4.360;2023-07-02T06:12:51;16.70;99.90
20125;DHT22;10223;50.862;4.360;2023-07-02T06:15:18;16.80;99.90
20125;DHT22;10223;50.862;4.360;2023-07-02T06:17:45;16.90;99.90
20125;DHT22;10223;50.862;4.360;2023-07-02T06:20:12;16.90;99.90
20125;DHT22;10223;50.862;4.360;2023-07-02T06:22:39;17.00;99.90
20125;DHT22;10223;50.862;4.360;2023-07-02T06:25:08;17.10;99.90
20125;DHT22;10223;50.862;4.360;2023-07-02T06:27:35;17.10;99.90
20125;DHT22;10223;50.862;4.360;2023-07-02T06:30:04;17.20;99.90
20125;DHT22;10223;50.862;4.360;2023-07-02T06:32:31;17.30;99.90
20125;DHT22;10223;50.862;4.360;2023-07-02T06:34:58;17.50;99.90
20125;DHT22;10223;50.862;4.360;2023-07-02T06:37:25;17.60;99.90
20125;DHT22;10223;50.862;4.360;2023-07-02T06:39:52;17.60;99.90
20125;DHT22;10223;50.862;4.360;2023-07-02T06:42:19;17.90;99.90
20125;DHT22;10223;50.862;4.360;2023-07-02T06:44:46;18.10;99.90
20125;DHT22;10223;50.862;4.360;2023-07-02T06:47:14;18.10;99.90
20125;DHT22;10223;50.862;4.360;2023-07-02T06:49:41;18.10;99.90
20125;DHT22;10223;50.862;4.360;2023-07-02T06:52:07;18.10;99.90
20125;DHT22;10223;50.862;4.360;2023-07-02T06:54:34;18.00;99.90
20125;DHT22;10223;50.862;4.360;2023-07-02T06:57:01;18.10;99.90
20125;DHT22;10223;50.862;4.360;2023-07-02T06:59:28;18.30;99.90
20125;DHT22;10223;50.862;4.360;2023-07-02T07:01:55;18.30;99.90
20125;DHT22;10223;50.862;4.360;2023-07-02T07:04:23;18.10;99.90
20125;DHT22;10223;50.862;4.360;2023-07-02T07:06:50;18.20;99.90
20125;DHT22;10223;50.862;4.360;2023-07-02T07:09:17;18.30;99.90
20125;DHT22;10223;50.862;4.360;2023-07-02T07:11:44;18.50;99.90
20125;DHT22;10223;50.862;4.360;2023-07-02T07:14:11;18.60;99.90
20125;DHT22;10223;50.862;4.360;2023-07-02T07:16:38;18.70;99.90
20125;DHT22;10223;50.862;4.360;2023-07-02T07:19:05;18.60;99.90
20125;DHT22;10223;50.862;4.360;2023-07-02T07:21:34;18.40;99.90
20125;DHT22;10223;50.862;4.360;2023-07-02T07:24:01;18.50;99.90
20125;DHT22;10223;50.862;4.360;2023-07-02T07:26:28;18.50;99.90
20125;DHT22;10223;50.862;4.360;2023-07-02T07:28:54;18.70;99.90
20125;DHT22;10223;50.862;4.360;2023-07-02T07:31:23;18.70;99.90
20125;DHT22;10223;50.862;4.360;2023-07-02T07:33:50;19.00;99.90
20125;DHT22;10223;50.862;4.360;2023-07-02T07:36:17;19.20;99.90
20125;DHT22;10223;50.862;4.360;2023-07-02T07:38:45;19.40;99.90
20125;DHT22;10223;50.862;4.360;2023-07-02T07:41:12;19.50;99.90
20125;DHT22;10223;50.862;4.360;2023-07-02T07:43:39;19.40;99.90
20125;DHT22;10223;50.862;4.360;2023-07-02T07:46:06;19.40;99.90
20125;DHT22;10223;50.862;4.360;2023-07-02T07:48:33;19.30;99.90
20125;DHT22;10223;50.862;4.360;2023-07-02T07:51:00;19.50;99.90
20125;DHT22;10223;50.862;4.360;2023-07-02T07:53:27;19.40;99.90
20125;DHT22;10223;50.862;4.360;2023-07-02T07:55:55;19.40;99.90
20125;DHT22;10223;50.862;4.360;2023-07-02T07:58:23;19.40;99.90
20125;DHT22;10223;50.862;4.360;2023-07-02T08:00:50;19.60;99.90
20125;DHT22;10223;50.862;4.360;2023-07-02T08:03:16;19.50;99.90
20125;DHT22;10223;50.862;4.360;2023-07-02T08:05:43;19.70;99.90
20125;DHT22;10223;50.862;4.360;2023-07-02T08:08:10;19.60;99.90
20125;DHT22;10223;50.862;4.360;2023-07-02T08:10:37;19.50;99.90
20125;DHT22;10223;50.862;4.360;2023-07-02T08:13:05;19.50;99.90
20125;DHT22;10223;50.862;4.360;2023-07-02T08:15:32;19.90;99.90
20125;DHT22;10223;50.862;4.360;2023-07-02T08:17:59;20.00;99.90
20125;DHT22;10223;50.862;4.360;2023-07-02T08:20:26;20.20;99.90
20125;DHT22;10223;50.862;4.360;2023-07-02T08:22:53;20.20;99.90
20125;DHT22;10223;50.862;4.360;2023-07-02T08:25:20;20.30;99.90
20125;DHT22;10223;50.862;4.360;2023-07-02T08:27:48;20.40;99.90
20125;DHT22;10223;50.862;4.360;2023-07-02T08:30:16;20.70;99.90
20125;DHT22;10223;50.862;4.360;2023-07-02T08:32:43;21.10;99.90
20125;DHT22;10223;50.862;4.360;2023-07-02T08:35:10;21.40;99.90
20125;DHT22;10223;50.862;4.360;2023-07-02T08:37:37;21.10;99.90
20125;DHT22;10223;50.862;4.360;2023-07-02T08:40:05;20.70;99.90
20125;DHT22;10223;50.862;4.360;2023-07-02T08:42:33;20.40;99.90
20125;DHT22;10223;50.862;4.360;2023-07-02T08:45:01;20.20;99.90
20125;DHT22;10223;50.862;4.360;2023-07-02T08:47:30;20.40;99.90
20125;DHT22;10223;50.862;4.360;2023-07-02T08:49:57;20.50;99.90
20125;DHT22;10223;50.862;4.360;2023-07-02T08:52:23;20.50;99.90
20125;DHT22;10223;50.862;4.360;2023-07-02T08:54:51;20.50;99.90
20125;DHT22;10223;50.862;4.360;2023-07-02T08:57:18;20.30;99.90
20125;DHT22;10223;50.862;4.360;2023-07-02T08:59:46;20.10;99.90
20125;DHT22;10223;50.862;4.360;2023-07-02T09:02:14;20.00;99.90
20125;DHT22;10223;50.862;4.360;2023-07-02T09:04:43;20.20;99.90
20125;DHT22;10223;50.862;4.360;2023-07-02T09:07:10;20.10;99.90
20125;DHT22;10223;50.862;4.360;2023-07-02T09:09:48;19.80;99.90
20125;DHT22;10223;50.862;4.360;2023-07-02T09:12:28;20.00;99.90
20125;DHT22;10223;50.862;4.360;2023-07-02T09:14:56;20.00;99.90
20125;DHT22;10223;50.862;4.360;2023-07-02T09:17:27;20.10;99.90
20125;DHT22;10223;50.862;4.360;2023-07-02T09:19:57;20.20;99.90
20125;DHT22;10223;50.862;4.360;2023-07-02T09:22:26;20.20;99.90
20125;DHT22;10223;50.862;4.360;2023-07-02T09:24:53;20.30;99.90
20125;DHT22;10223;50.862;4.360;2023-07-02T09:27:33;20.30;99.90
20125;DHT22;10223;50.862;4.360;2023-07-02T09:30:06;20.00;99.90
20125;DHT22;10223;50.862;4.360;2023-07-02T09:32:33;20.00;99.90
20125;DHT22;10223;50.862;4.360;2023-07-02T09:35:02;20.00;99.90
20125;DHT22;10223;50.862;4.360;2023-07-02T09:37:30;19.90;99.90
20125;DHT22;10223;50.862;4.360;2023-07-02T09:39:57;20.10;99.90
20125;DHT22;10223;50.862;4.360;2023-07-02T09:42:25;20.10;99.90
20125;DHT22;10223;50.862;4.360;2023-07-02T09:44:52;20.10;99.90
20125;DHT22;10223;50.862;4.360;2023-07-02T09:47:23;20.00;99.90
20125;DHT22;10223;50.862;4.360;2023-07-02T09:49:53;20.00;99.90
20125;DHT22;10223;50.862;4.360;2023-07-02T09:52:22;20.00;99.90
20125;DHT22;10223;50.862;4.360;2023-07-02T09:54:49;19.90;99.90
20125;DHT22;10223;50.862;4.360;2023-07-02T09:57:16;19.80;99.90
20125;DHT22;10223;50.862;4.360;2023-07-02T09:59:43;19.80;99.90
20125;DHT22;10223;50.862;4.360;2023-07-02T10:02:10;19.80;99.90
20125;DHT22;10223;50.862;4.360;2023-07-02T10:04:42;19.90;99.90
20125;DHT22;10223;50.862;4.360;2023-07-02T10:07:10;20.10;99.90
20125;DHT22;10223;50.862;4.360;2023-07-02T10:09:39;20.30;99.90
20125;DHT22;10223;50.862;4.360;2023-07-02T10:12:17;20.50;99.90
20125;DHT22;10223;50.862;4.360;2023-07-02T10:14:44;20.60;99.90
20125;DHT22;10223;50.862;4.360;2023-07-02T10:17:23;20.70;99.90
20125;DHT22;10223;50.862;4.360;2023-07-02T10:19:50;20.60;99.90
20125;DHT22;10223;50.862;4.360;2023-07-02T10:22:17;20.60;99.90
20125;DHT22;10223;50.862;4.360;2023-07-02T10:24:55;20.50;99.90
20125;DHT22;10223;50.862;4.360;2023-07-02T10:27:36;20.40;99.90
20125;DHT22;10223;50.862;4.360;2023-07-02T10:30:04;20.40;99.90
20125;DHT22;10223;50.862;4.360;2023-07-02T10:32:32;20.30;99.90
20125;DHT22;10223;50.862;4.360;2023-07-02T10:35:00;20.40;99.90
20125;DHT22;10223;50.862;4.360;2023-07-02T10:37:35;20.60;99.90
20125;DHT22;10223;50.862;4.360;2023-07-02T10:40:07;20.40;99.90
20125;DHT22;10223;50.862;4.360;2023-07-02T10:42:44;20.40;99.90
20125;DHT22;10223;50.862;4.360;2023-07-02T10:45:11;20.50;99.90
20125;DHT22;10223;50.862;4.360;2023-07-02T10:47:39;20.30;99.90
20125;DHT22;10223;50.862;4.360;2023-07-02T10:50:14;20.10;99.90
20125;DHT22;10223;50.862;4.360;2023-07-02T10:52:41;20.30;99.90
20125;DHT22;10223;50.862;4.360;2023-07-02T10:55:10;20.70;99.90
20125;DHT22;10223;50.862;4.360;2023-07-02T10:57:38;21.00;99.90
20125;DHT22;10223;50.862;4.360;2023-07-02T11:00:06;21.10;99.90
20125;DHT22;10223;50.862;4.360;2023-07-02T11:02:34;21.20;99.90
20125;DHT22;10223;50.862;4.360;2023-07-02T11:05:01;21.30;99.90
20125;DHT22;10223;50.862;4.360;2023-07-02T11:07:28;21.10;99.90
20125;DHT22;10223;50.862;4.360;2023-07-02T11:09:55;21.10;99.90
20125;DHT22;10223;50.862;4.360;2023-07-02T11:12:29;21.00;99.90
20125;DHT22;10223;50.862;4.360;2023-07-02T11:15:07;21.10;99.90
20125;DHT22;10223;50.862;4.360;2023-07-02T11:17:33;21.10;99.90
20125;DHT22;10223;50.862;4.360;2023-07-02T11:20:00;20.70;99.90
20125;DHT22;10223;50.862;4.360;2023-07-02T11:22:34;20.30;99.90
20125;DHT22;10223;50.862;4.360;2023-07-02T11:25:09;20.40;99.90
20125;DHT22;10223;50.862;4.360;2023-07-02T11:27:37;20.70;99.90
20125;DHT22;10223;50.862;4.360;2023-07-02T11:30:05;20.80;99.90
20125;DHT22;10223;50.862;4.360;2023-07-02T11:32:46;21.10;99.90
20125;DHT22;10223;50.862;4.360;2023-07-02T11:35:13;21.40;99.90
20125;DHT22;10223;50.862;4.360;2023-07-02T11:37:41;21.50;99.90
20125;DHT22;10223;50.862;4.360;2023-07-02T11:40:08;21.50;99.90
20125;DHT22;10223;50.862;4.360;2023-07-02T11:42:37;21.60;99.90
20125;DHT22;10223;50.862;4.360;2023-07-02T11:45:04;21.50;99.90
20125;DHT22;10223;50.862;4.360;2023-07-02T11:47:31;21.30;99.90
20125;DHT22;10223;50.862;4.360;2023-07-02T11:49:58;21.20;99.90
20125;DHT22;10223;50.862;4.360;2023-07-02T11:52:25;21.10;99.90
20125;DHT22;10223;50.862;4.360;2023-07-02T11:54:52;20.90;99.90
20125;DHT22;10223;50.862;4.360;2023-07-02T11:57:20;21.20;99.90
20125;DHT22;10223;50.862;4.360;2023-07-02T11:59:49;21.40;99.90
20125;DHT22;10223;50.862;4.360;2023-07-02T12:02:17;21.60;99.90
20125;DHT22;10223;50.862;4.360;2023-07-02T12:04:45;21.80;99.90
20125;DHT22;10223;50.862;4.360;2023-07-02T12:07:11;22.00;99.90
20125;DHT22;10223;50.862;4.360;2023-07-02T12:09:39;22.30;99.90
20125;DHT22;10223;50.862;4.360;2023-07-02T12:12:07;22.40;99.90
20125;DHT22;10223;50.862;4.360;2023-07-02T12:14:34;22.70;99.90
20125;DHT22;10223;50.862;4.360;2023-07-02T12:17:02;22.50;99.90
20125;DHT22;10223;50.862;4.360;2023-07-02T12:19:29;22.50;99.90
20125;DHT22;10223;50.862;4.360;2023-07-02T12:21:56;22.20;99.90
20125;DHT22;10223;50.862;4.360;2023-07-02T12:24:23;22.00;99.90
20125;DHT22;10223;50.862;4.360;2023-07-02T12:26:50;22.10;99.90
20125;DHT22;10223;50.862;4.360;2023-07-02T12:29:17;22.20;99.90
20125;DHT22;10223;50.862;4.360;2023-07-02T12:31:44;22.30;99.90
20125;DHT22;10223;50.862;4.360;2023-07-02T12:34:12;22.40;99.90
20125;DHT22;10223;50.862;4.360;2023-07-02T12:36:39;22.50;99.90
20125;DHT22;10223;50.862;4.360;2023-07-02T12:39:06;22.40;99.90
20125;DHT22;10223;50.862;4.360;2023-07-02T12:41:33;22.40;99.90
20125;DHT22;10223;50.862;4.360;2023-07-02T12:44:00;22.30;99.90
20125;DHT22;10223;50.862;4.360;2023-07-02T12:46:27;22.20;99.90
20125;DHT22;10223;50.862;4.360;2023-07-02T12:48:54;22.10;99.90
20125;DHT22;10223;50.862;4.360;2023-07-02T12:51:22;22.20;99.90
20125;DHT22;10223;50.862;4.360;2023-07-02T12:53:49;22.40;99.90
20125;DHT22;10223;50.862;4.360;2023-07-02T12:56:16;22.60;99.90
20125;DHT22;10223;50.862;4.360;2023-07-02T12:58:43;22.90;99.90
20125;DHT22;10223;50.862;4.360;2023-07-02T13:01:10;23.00;99.90
20125;DHT22;10223;50.862;4.360;2023-07-02T13:03:37;23.10;99.90
20125;DHT22;10223;50.862;4.360;2023-07-02T13:06:04;23.00;99.90
20125;DHT22;10223;50.862;4.360;2023-07-02T13:08:32;23.00;99.90
20125;DHT22;10223;50.862;4.360;2023-07-02T13:10:59;23.20;99.90
20125;DHT22;10223;50.862;4.360;2023-07-02T13:13:26;23.20;99.90
20125;DHT22;10223;50.862;4.360;2023-07-02T13:15:53;23.20;99.90
20125;DHT22;10223;50.862;4.360;2023-07-02T13:18:20;23.30;99.90
20125;DHT22;10223;50.862;4.360;2023-07-02T13:20:46;23.10;99.90
20125;DHT22;10223;50.862;4.360;2023-07-02T13:23:13;23.10;99.90
20125;DHT22;10223;50.862;4.360;2023-07-02T13:25:42;23.40;99.90
20125;DHT22;10223;50.862;4.360;2023-07-02T13:28:09;23.30;99.90
20125;DHT22;10223;50.862;4.360;2023-07-02T13:30:36;23.10;99.90
20125;DHT22;10223;50.862;4.360;2023-07-02T13:33:03;23.30;99.90
20125;DHT22;10223;50.862;4.360;2023-07-02T13:35:29;23.70;99.90
20125;DHT22;10223;50.862;4.360;2023-07-02T13:37:57;23.70;99.90
20125;DHT22;10223;50.862;4.360;2023-07-02T13:40:28;23.80;99.90
20125;DHT22;10223;50.862;4.360;2023-07-02T13:42:56;24.20;99.90
20125;DHT22;10223;50.862;4.360;2023-07-02T13:45:23;24.30;99.90
20125;DHT22;10223;50.862;4.360;2023-07-02T13:47:53;23.60;99.90
20125;DHT22;10223;50.862;4.360;2023-07-02T13:50:20;23.30;99.90
20125;DHT22;10223;50.862;4.360;2023-07-02T13:52:46;23.40;99.90
20125;DHT22;10223;50.862;4.360;2023-07-02T13:55:15;23.50;99.90
20125;DHT22;10223;50.862;4.360;2023-07-02T13:57:42;23.50;99.90
20125;DHT22;10223;50.862;4.360;2023-07-02T14:00:12;23.90;99.90
20125;DHT22;10223;50.862;4.360;2023-07-02T14:02:39;24.10;99.90
20125;DHT22;10223;50.862;4.360;2023-07-02T14:05:06;24.20;99.90
20125;DHT22;10223;50.862;4.360;2023-07-02T14:07:33;24.00;99.90
20125;DHT22;10223;50.862;4.360;2023-07-02T14:10:00;24.00;99.90
20125;DHT22;10223;50.862;4.360;2023-07-02T14:12:27;24.50;99.90
20125;DHT22;10223;50.862;4.360;2023-07-02T14:14:54;24.80;99.90
20125;DHT22;10223;50.862;4.360;2023-07-02T14:17:22;25.50;99.90
20125;DHT22;10223;50.862;4.360;2023-07-02T14:19:49;25.80;99.90
20125;DHT22;10223;50.862;4.360;2023-07-02T14:22:16;26.00;99.90
20125;DHT22;10223;50.862;4.360;2023-07-02T14:24:43;25.80;99.90
20125;DHT22;10223;50.862;4.360;2023-07-02T14:27:10;26.00;99.90
20125;DHT22;10223;50.862;4.360;2023-07-02T14:29:37;25.60;99.90
20125;DHT22;10223;50.862;4.360;2023-07-02T14:32:05;25.30;99.90
20125;DHT22;10223;50.862;4.360;2023-07-02T14:34:34;24.70;99.90
20125;DHT22;10223;50.862;4.360;2023-07-02T14:37:02;24.30;99.90
20125;DHT22;10223;50.862;4.360;2023-07-02T14:39:29;23.60;99.90
20125;DHT22;10223;50.862;4.360;2023-07-02T14:41:56;23.50;99.90
20125;DHT22;10223;50.862;4.360;2023-07-02T14:44:23;23.70;99.90
20125;DHT22;10223;50.862;4.360;2023-07-02T14:46:50;23.90;99.90
20125;DHT22;10223;50.862;4.360;2023-07-02T14:49:17;24.00;99.90
20125;DHT22;10223;50.862;4.360;2023-07-02T14:51:45;23.80;99.90
20125;DHT22;10223;50.862;4.360;2023-07-02T14:54:12;23.60;99.90
20125;DHT22;10223;50.862;4.360;2023-07-02T14:56:39;23.80;99.90
20125;DHT22;10223;50.862;4.360;2023-07-02T14:59:06;24.30;99.90
20125;DHT22;10223;50.862;4.360;2023-07-02T15:01:34;24.70;99.90
20125;DHT22;10223;50.862;4.360;2023-07-02T15:04:01;24.90;99.90
20125;DHT22;10223;50.862;4.360;2023-07-02T15:06:29;24.50;99.90
20125;DHT22;10223;50.862;4.360;2023-07-02T15:08:57;24.00;99.90
20125;DHT22;10223;50.862;4.360;2023-07-02T15:11:24;23.70;99.90
20125;DHT22;10223;50.862;4.360;2023-07-02T15:13:53;23.50;99.90
20125;DHT22;10223;50.862;4.360;2023-07-02T15:16:20;23.50;99.90
20125;DHT22;10223;50.862;4.360;2023-07-02T15:18:47;23.50;99.90
20125;DHT22;10223;50.862;4.360;2023-07-02T15:21:14;23.50;99.90
20125;DHT22;10223;50.862;4.360;2023-07-02T15:23:42;23.70;99.90
20125;DHT22;10223;50.862;4.360;2023-07-02T15:26:10;23.60;99.90
20125;DHT22;10223;50.862;4.360;2023-07-02T15:28:37;23.40;99.90
20125;DHT22;10223;50.862;4.360;2023-07-02T15:31:06;23.20;99.90
20125;DHT22;10223;50.862;4.360;2023-07-02T15:33:34;22.90;99.90